map of CPD home
CPD - Airport
Location
City:  Coober Pedy, South Australia, Australia
ICAO:YCBP
IATA:CPD

Details
Type:Airport (Aerodrome, Airfield)
Latitude:2902'24"S (-29.039999)
Longitude:13443'15"E (134.720833)
Datum:WGS 1984
Elevation:740 ft (226 m)
Variation:5.49E (WMM2015v2 magnetic declination)
-0.02 annual change
Runways:2
Longest:4685 × 98 ft (1428 × 30 m), paved

Time
Time Zone:UTC+9:30 (DST+10:30)
Local Time:

Weather
METAR:YCBP 041400Z AUTO 16015KT 9999 // NCD 30/09 Q1011

Related Locations
Nearby:
Farthest:FLW: 11358 mi / 18279 km
Flores Island [Santa Cruz], 20, PT

Find:

   beyond  
but within

Other Information
Maps:
NOTAMs:
Links:
Sources:

  
  • flag of Australia
  • flag of South Australia
  

Sectional Chart

Flight Planning
at skyvector.com

Satellite Image

Google Maps Satellite view

 

Copyright © 2004-2019 Karl L. Swartz. All rights reserved.
The Great Circle Mapper name and logo are trademarks of the Great Circle Mapper.
All other trademarks mentioned herein belong to their respective owners.
Please see credits for attibutions and further copyright information.

  Follow gcmap on Facebook Follow gcmap on Twitter GCmap on LinkedIn

hCard Microformat

Geo Microformat